createdAt,value
2023-05-15T00:01:24.992Z,99095.41
2023-05-15T00:03:52.050Z,99087.94
2023-05-15T00:06:19.078Z,99087.56
2023-05-15T00:08:45.464Z,99087.00
2023-05-15T00:11:12.350Z,99086.03
2023-05-15T00:13:38.873Z,99086.03
2023-05-15T00:16:08.073Z,99086.59
2023-05-15T00:18:34.995Z,99081.97
2023-05-15T00:21:01.802Z,99078.28
2023-05-15T00:23:28.266Z,99077.44
2023-05-15T00:25:55.149Z,99077.84
2023-05-15T00:28:22.022Z,99073.38
2023-05-15T00:30:48.477Z,99068.56
2023-05-15T00:33:15.951Z,99075.63
2023-05-15T00:35:42.387Z,99073.78
2023-05-15T00:38:08.854Z,99075.88
2023-05-15T00:40:37.595Z,99068.41
2023-05-15T00:43:05.446Z,99066.75
2023-05-15T00:45:32.243Z,99064.63
2023-05-15T00:47:59.290Z,99071.66
2023-05-15T00:50:26.553Z,99058.84
2023-05-15T00:52:53.413Z,99063.50
2023-05-15T00:55:19.822Z,99061.53
2023-05-15T00:57:47.839Z,99062.34
2023-05-15T01:00:17.024Z,99062.94
2023-05-15T01:02:44.296Z,99061.94
2023-05-15T01:05:11.326Z,99057.28
2023-05-15T01:07:48.317Z,99057.97
2023-05-15T01:10:16.929Z,99061.53
2023-05-15T01:12:46.012Z,99068.13
2023-05-15T01:15:13.134Z,99055.88
2023-05-15T01:17:39.628Z,99058.81
2023-05-15T01:20:10.517Z,99062.06
2023-05-15T01:22:52.019Z,99059.13
2023-05-15T01:26:03.084Z,99059.53
2023-05-15T01:28:39.887Z,99068.25
2023-05-15T01:31:14.690Z,99060.94
2023-05-15T01:33:45.858Z,99067.00
2023-05-15T01:36:21.711Z,99076.41
2023-05-15T01:38:56.325Z,99078.69
2023-05-15T01:41:39.389Z,99059.78
2023-05-15T01:44:11.509Z,99067.97
2023-05-15T01:46:46.145Z,99067.06
2023-05-15T01:49:16.132Z,99071.00
2023-05-15T01:51:46.125Z,99084.22
2023-05-15T01:54:14.804Z,99070.53
2023-05-15T01:56:45.465Z,99075.06
2023-05-15T01:59:13.546Z,99066.06
2023-05-15T02:01:42.006Z,99073.78
2023-05-15T02:04:10.022Z,99063.69
2023-05-15T02:06:37.243Z,99068.72
2023-05-15T02:09:04.264Z,99071.53
2023-05-15T02:11:30.812Z,99073.06
2023-05-15T02:13:58.025Z,99076.31
2023-05-15T02:16:24.842Z,99069.53
2023-05-15T02:18:52.555Z,99064.44
2023-05-15T02:21:19.140Z,99068.44
2023-05-15T02:23:47.011Z,99062.78
2023-05-15T02:26:25.849Z,99064.00
2023-05-15T02:29:12.111Z,99061.06
2023-05-15T02:32:00.382Z,99059.09
2023-05-15T02:34:34.111Z,99051.78
2023-05-15T02:37:01.862Z,99055.16
2023-05-15T02:39:29.449Z,99061.34
2023-05-15T02:41:57.082Z,99063.34
2023-05-15T02:44:25.320Z,99060.81
2023-05-15T02:46:53.260Z,99068.69
2023-05-15T02:49:21.932Z,99066.28
2023-05-15T02:51:48.345Z,99068.97
2023-05-15T02:54:15.332Z,99074.31
2023-05-15T02:56:41.838Z,99069.84
2023-05-15T02:59:08.518Z,99068.72
2023-05-15T03:01:35.082Z,99060.00
2023-05-15T03:04:01.556Z,99067.38
2023-05-15T03:06:28.459Z,99056.69
2023-05-15T03:08:54.913Z,99057.69
2023-05-15T03:11:21.495Z,99063.31
2023-05-15T03:13:47.906Z,99061.78
2023-05-15T03:16:14.642Z,99068.44
2023-05-15T03:18:42.063Z,99071.09
2023-05-15T03:21:08.735Z,99069.56
2023-05-15T03:23:37.637Z,99072.66
2023-05-15T03:26:04.638Z,99074.47
2023-05-15T03:28:31.086Z,99068.69
2023-05-15T03:30:57.742Z,99071.22
2023-05-15T03:33:24.406Z,99082.75
2023-05-15T03:35:52.086Z,99081.13
2023-05-15T03:38:19.361Z,99084.22
2023-05-15T03:40:45.755Z,99091.81
2023-05-15T03:43:12.385Z,99084.75
2023-05-15T03:45:39.176Z,99091.00
2023-05-15T03:48:06.215Z,99086.19
2023-05-15T03:50:32.972Z,99092.38
2023-05-15T03:52:59.908Z,99091.81
2023-05-15T03:55:27.147Z,99094.34
2023-05-15T03:57:53.730Z,99094.34
2023-05-15T04:00:20.574Z,99088.56
2023-05-15T04:02:47.271Z,99089.28
2023-05-15T04:05:14.039Z,99087.53
2023-05-15T04:07:40.540Z,99089.25
2023-05-15T04:10:07.670Z,99092.31
2023-05-15T04:12:35.513Z,99095.09
2023-05-15T04:15:15.759Z,99093.09
2023-05-15T04:17:43.307Z,99079.88
2023-05-15T04:20:11.660Z,99083.78
2023-05-15T04:22:38.179Z,99079.66
2023-05-15T04:25:05.232Z,99082.88
2023-05-15T04:27:32.035Z,99081.59
2023-05-15T04:29:58.429Z,99082.59
2023-05-15T04:32:24.931Z,99082.28
2023-05-15T04:34:51.326Z,99082.44
2023-05-15T04:37:17.777Z,99088.47
2023-05-15T04:39:44.347Z,99075.75
2023-05-15T04:42:10.890Z,99080.69
2023-05-15T04:44:37.342Z,99080.75
2023-05-15T04:47:03.981Z,99076.63
2023-05-15T04:49:30.598Z,99075.63
2023-05-15T04:51:56.967Z,99077.03
2023-05-15T04:54:23.990Z,99084.06
2023-05-15T04:56:50.404Z,99079.06
2023-05-15T04:59:18.059Z,99088.06
2023-05-15T05:01:45.501Z,99089.31
2023-05-15T05:04:12.283Z,99087.47
2023-05-15T05:06:38.971Z,99090.22
2023-05-15T05:09:06.088Z,99089.75
2023-05-15T05:11:32.467Z,99087.13
2023-05-15T05:13:59.318Z,99092.44
2023-05-15T05:16:26.348Z,99078.00
2023-05-15T05:18:52.860Z,99087.22
2023-05-15T05:21:19.496Z,99082.13
2023-05-15T05:23:47.154Z,99094.09
2023-05-15T05:26:13.647Z,99094.47
2023-05-15T05:28:40.439Z,99093.38
2023-05-15T05:31:08.111Z,99096.59
2023-05-15T05:33:34.613Z,99098.28
2023-05-15T05:36:01.439Z,99093.28
2023-05-15T05:38:27.901Z,99098.03
2023-05-15T05:40:54.274Z,99094.16
2023-05-15T05:43:21.911Z,99090.72
2023-05-15T05:45:48.362Z,99096.66
2023-05-15T05:48:15.296Z,99089.97
2023-05-15T05:50:42.259Z,99092.50
2023-05-15T05:53:08.965Z,99097.88
2023-05-15T05:55:35.616Z,99094.19
2023-05-15T05:58:04.790Z,99094.22
2023-05-15T06:00:35.205Z,99093.81
2023-05-15T06:03:02.705Z,99095.50
2023-05-15T06:05:29.478Z,99088.16
2023-05-15T06:07:56.728Z,99093.25
2023-05-15T06:10:23.844Z,99090.53
2023-05-15T06:12:50.827Z,99092.56
2023-05-15T06:15:17.268Z,99099.53
2023-05-15T06:17:43.832Z,99095.00
2023-05-15T06:20:10.684Z,99091.28
2023-05-15T06:22:37.586Z,99085.56
2023-05-15T06:25:05.770Z,99090.66
2023-05-15T06:27:34.413Z,99079.25
2023-05-15T06:30:00.808Z,99084.34
2023-05-15T06:32:28.932Z,99080.81
2023-05-15T06:34:55.679Z,99078.47
2023-05-15T06:37:22.062Z,99076.63
2023-05-15T06:39:48.540Z,99065.69
2023-05-15T06:42:15.152Z,99068.91
2023-05-15T06:44:41.568Z,99068.72
2023-05-15T06:47:08.319Z,99068.72
2023-05-15T06:49:34.776Z,99069.56
2023-05-15T06:52:01.374Z,99070.91
2023-05-15T06:54:27.753Z,99064.88
2023-05-15T06:56:54.204Z,99068.88
2023-05-15T06:59:21.106Z,99069.22
2023-05-15T07:01:47.855Z,99064.19
2023-05-15T07:04:14.369Z,99069.41
2023-05-15T07:06:41.283Z,99065.03
2023-05-15T07:09:07.759Z,99081.88
2023-05-15T07:11:37.652Z,99075.75
2023-05-15T07:14:05.403Z,99078.97
2023-05-15T07:16:31.866Z,99070.38
2023-05-15T07:18:58.630Z,99082.50
2023-05-15T07:21:25.021Z,99078.66
2023-05-15T07:23:51.439Z,99084.34
2023-05-15T07:26:27.496Z,99079.28
2023-05-15T07:28:59.277Z,99081.13
2023-05-15T07:31:25.766Z,99083.84
2023-05-15T07:33:52.209Z,99083.00
2023-05-15T07:36:18.606Z,99074.28
2023-05-15T07:38:45.352Z,99074.28
2023-05-15T07:41:11.727Z,99071.63
2023-05-15T07:43:38.426Z,99062.50
2023-05-15T07:46:05.363Z,99062.53
2023-05-15T07:48:31.851Z,99058.97
2023-05-15T07:50:58.342Z,99061.69
2023-05-15T07:53:24.814Z,99067.56
2023-05-15T07:55:52.117Z,99067.78
2023-05-15T07:58:18.509Z,99062.69
2023-05-15T08:00:45.037Z,99062.69
2023-05-15T08:03:11.904Z,99060.38
2023-05-15T08:05:38.854Z,99064.75
2023-05-15T08:08:05.313Z,99070.28
2023-05-15T08:10:32.085Z,99075.66
2023-05-15T08:12:58.712Z,99067.06
2023-05-15T08:15:25.519Z,99083.41
2023-05-15T08:17:52.811Z,99081.41
2023-05-15T08:20:19.236Z,99083.09
2023-05-15T08:22:46.160Z,99078.34
2023-05-15T08:25:12.559Z,99078.50
2023-05-15T08:27:38.955Z,99086.78
2023-05-15T08:30:06.357Z,99078.53
2023-05-15T08:32:32.775Z,99087.81
2023-05-15T08:34:59.568Z,99090.84
2023-05-15T08:37:26.053Z,99088.97
2023-05-15T08:39:52.487Z,99087.44
2023-05-15T08:42:28.186Z,99077.69
2023-05-15T08:44:56.053Z,99081.75
2023-05-15T08:47:22.690Z,99083.09
2023-05-15T08:50:00.992Z,99076.72
2023-05-15T08:52:28.585Z,99074.50
2023-05-15T08:54:55.548Z,99072.47
2023-05-15T08:57:22.561Z,99072.16
2023-05-15T08:59:49.513Z,99071.66
2023-05-15T09:02:17.518Z,99079.19
2023-05-15T09:04:44.965Z,99081.06
2023-05-15T09:07:12.225Z,99078.69
2023-05-15T09:09:39.560Z,99078.69
2023-05-15T09:12:09.958Z,99079.22
2023-05-15T09:14:36.323Z,99072.31
2023-05-15T09:17:02.937Z,99080.19
2023-05-15T09:19:30.377Z,99076.38
2023-05-15T09:22:16.390Z,99079.22
2023-05-15T09:24:43.425Z,99078.91
2023-05-15T09:27:11.511Z,99082.91
2023-05-15T09:29:39.748Z,99074.84
2023-05-15T09:32:08.957Z,99071.28
2023-05-15T09:34:37.915Z,99056.41
2023-05-15T09:37:07.185Z,99062.91
2023-05-15T09:39:39.952Z,99062.69
2023-05-15T09:42:14.929Z,99046.75
2023-05-15T09:44:43.210Z,99053.63
2023-05-15T09:47:14.530Z,99055.63
2023-05-15T09:49:44.873Z,99058.28
2023-05-15T09:52:11.743Z,99055.09
2023-05-15T09:54:38.740Z,99058.13
2023-05-15T09:57:09.903Z,99063.34
2023-05-15T09:59:36.666Z,99053.19
2023-05-15T10:02:03.176Z,99054.25
2023-05-15T10:04:36.008Z,99052.50
2023-05-15T10:07:02.587Z,99050.31
2023-05-15T10:09:32.625Z,99051.66
2023-05-15T10:11:59.406Z,99054.66
2023-05-15T10:14:27.138Z,99055.22
2023-05-15T10:16:55.774Z,99052.41
2023-05-15T10:19:25.335Z,99047.41
2023-05-15T10:21:56.145Z,99040.66
2023-05-15T10:24:25.563Z,99042.19
2023-05-15T10:26:54.201Z,99036.41
2023-05-15T10:29:22.141Z,99037.63
2023-05-15T10:31:49.731Z,99046.97
2023-05-15T10:34:16.509Z,99031.22
2023-05-15T10:36:43.688Z,99014.81
2023-05-15T10:39:10.458Z,99026.16
2023-05-15T10:41:39.220Z,99022.09
2023-05-15T10:44:06.471Z,99021.06
2023-05-15T10:46:36.411Z,99024.25
2023-05-15T10:49:03.471Z,99008.00
2023-05-15T10:51:32.753Z,99001.69
2023-05-15T10:54:01.856Z,99005.19
2023-05-15T10:56:32.940Z,98998.84
2023-05-15T10:59:10.795Z,98999.13
2023-05-15T11:01:39.192Z,98992.53
2023-05-15T11:04:06.996Z,98987.84
2023-05-15T11:06:33.880Z,98992.13
2023-05-15T11:09:27.414Z,98984.44
2023-05-15T11:11:57.482Z,98991.19
2023-05-15T11:14:26.281Z,98983.34
2023-05-15T11:16:52.969Z,98975.22
2023-05-15T11:19:36.628Z,98975.13
2023-05-15T11:22:16.147Z,98971.84
2023-05-15T11:24:50.828Z,98961.47
2023-05-15T11:27:20.631Z,98959.41
2023-05-15T11:30:08.583Z,98955.06
2023-05-15T11:32:55.985Z,98950.16
2023-05-15T11:35:34.759Z,98944.44
2023-05-15T11:38:11.379Z,98947.47
2023-05-15T11:41:00.209Z,98936.13
2023-05-15T11:43:28.745Z,98941.91
2023-05-15T11:46:03.469Z,98928.19
2023-05-15T11:48:35.420Z,98933.22
2023-05-15T11:51:02.913Z,98920.06
2023-05-15T11:53:30.752Z,98919.66
2023-05-15T11:55:57.696Z,98926.16
2023-05-15T11:58:25.694Z,98917.66
2023-05-15T12:00:53.545Z,98918.84
2023-05-15T12:03:32.253Z,98923.81
2023-05-15T12:06:01.187Z,98912.91
2023-05-15T12:08:42.089Z,98899.09
2023-05-15T12:11:09.115Z,98902.38
2023-05-15T12:13:36.105Z,98913.56
2023-05-15T12:16:04.010Z,98903.88
2023-05-15T12:18:32.521Z,98899.59
2023-05-15T12:20:59.654Z,98902.31
2023-05-15T12:23:28.797Z,98905.25
2023-05-15T12:26:00.883Z,98896.03
2023-05-15T12:28:28.821Z,98891.66
2023-05-15T12:30:55.876Z,98902.94
2023-05-15T12:33:23.793Z,98889.16
2023-05-15T12:35:53.845Z,98893.38
2023-05-15T12:38:22.325Z,98880.63
2023-05-15T12:40:53.474Z,98883.94
2023-05-15T12:43:20.551Z,98876.66
2023-05-15T12:45:47.489Z,98868.19
2023-05-15T12:48:16.964Z,98865.50
2023-05-15T12:50:45.092Z,98860.06
2023-05-15T12:53:17.418Z,98859.16
2023-05-15T12:55:46.410Z,98860.81
2023-05-15T12:58:15.163Z,98855.09
2023-05-15T13:00:43.334Z,98851.97
2023-05-15T13:03:11.826Z,98854.22
2023-05-15T13:05:41.664Z,98840.81
2023-05-15T13:08:08.031Z,98836.16
2023-05-15T13:10:38.073Z,98842.69
2023-05-15T13:13:04.751Z,98843.75
2023-05-15T13:15:39.381Z,98853.00
2023-05-15T13:18:18.297Z,98846.50
2023-05-15T13:20:47.035Z,98843.81
2023-05-15T13:23:16.518Z,98845.25
2023-05-15T13:25:43.535Z,98848.72
2023-05-15T13:28:11.523Z,98838.81
2023-05-15T13:30:41.626Z,98834.91
2023-05-15T13:33:10.052Z,98829.09
2023-05-15T13:35:37.370Z,98834.09
2023-05-15T13:38:04.259Z,98824.78
2023-05-15T13:40:37.351Z,98835.44
2023-05-15T13:43:04.028Z,98830.25
2023-05-15T13:45:30.485Z,98825.41
2023-05-15T13:47:57.994Z,98820.97
2023-05-15T13:50:24.671Z,98823.22
2023-05-15T13:52:51.480Z,98820.50
2023-05-15T13:55:18.149Z,98821.53
2023-05-15T13:57:45.274Z,98818.44
2023-05-15T14:00:13.693Z,98815.38
2023-05-15T14:02:41.960Z,98827.22
2023-05-15T14:05:10.290Z,98827.00
2023-05-15T14:07:37.332Z,98819.72
2023-05-15T14:10:04.590Z,98830.09
2023-05-15T14:12:32.658Z,98824.88
2023-05-15T14:14:59.499Z,98822.22
2023-05-15T14:17:26.110Z,98821.59
2023-05-15T14:19:52.714Z,98821.13
2023-05-15T14:22:19.239Z,98817.19
2023-05-15T14:24:45.994Z,98819.81
2023-05-15T14:27:12.381Z,98819.69
2023-05-15T14:29:39.361Z,98814.78
2023-05-15T14:32:06.630Z,98816.66
2023-05-15T14:34:33.857Z,98812.69
2023-05-15T14:37:00.759Z,98815.34
2023-05-15T14:39:27.166Z,98815.06
2023-05-15T14:41:53.701Z,98811.94
2023-05-15T14:44:20.130Z,98803.28
2023-05-15T14:46:46.931Z,98809.53
2023-05-15T14:49:13.380Z,98806.34
2023-05-15T14:51:40.144Z,98807.34
2023-05-15T14:54:07.009Z,98800.56
2023-05-15T14:56:33.522Z,98797.66
2023-05-15T14:59:00.412Z,98810.28
2023-05-15T15:01:26.814Z,98813.00
2023-05-15T15:03:53.494Z,98815.44
2023-05-15T15:06:20.030Z,98812.97
2023-05-15T15:08:46.864Z,98817.59
2023-05-15T15:11:13.300Z,98813.13
2023-05-15T15:13:39.741Z,98832.16
2023-05-15T15:16:08.048Z,98826.81
2023-05-15T15:18:34.815Z,98828.94
2023-05-15T15:21:01.343Z,98827.69
2023-05-15T15:23:27.725Z,98827.28
2023-05-15T15:25:54.204Z,98828.53
2023-05-15T15:28:20.785Z,98829.34
2023-05-15T15:30:47.753Z,98829.28
2023-05-15T15:33:14.125Z,98829.69
2023-05-15T15:35:40.863Z,98833.41
2023-05-15T15:38:08.011Z,98835.47
2023-05-15T15:40:34.946Z,98817.16
2023-05-15T15:43:01.945Z,98813.19
2023-05-15T15:45:28.418Z,98828.25
2023-05-15T15:47:54.888Z,98821.09
2023-05-15T15:50:21.397Z,98824.47
2023-05-15T15:52:48.073Z,98826.75
2023-05-15T15:55:14.557Z,98836.28
2023-05-15T15:57:41.108Z,98840.22
2023-05-15T16:00:09.374Z,98842.75
2023-05-15T16:02:36.252Z,98842.94
2023-05-15T16:05:03.431Z,98843.53
2023-05-15T16:07:30.196Z,98845.97
2023-05-15T16:10:10.676Z,98842.38
2023-05-15T16:12:40.611Z,98841.75
2023-05-15T16:15:21.006Z,98849.59
2023-05-15T16:17:51.349Z,98847.13
2023-05-15T16:20:17.908Z,98843.16
2023-05-15T16:22:44.962Z,98849.22
2023-05-15T16:25:11.462Z,98843.56
2023-05-15T16:27:37.999Z,98848.16
2023-05-15T16:30:04.932Z,98847.75
2023-05-15T16:32:31.684Z,98843.59
2023-05-15T16:34:58.194Z,98847.38
2023-05-15T16:37:24.684Z,98839.19
2023-05-15T16:39:51.327Z,98846.91
2023-05-15T16:42:17.920Z,98852.31
2023-05-15T16:44:44.286Z,98849.81
2023-05-15T16:47:10.691Z,98856.88
2023-05-15T16:49:37.512Z,98855.13
2023-05-15T16:52:04.114Z,98861.59
2023-05-15T16:54:31.496Z,98869.28
2023-05-15T16:56:57.959Z,98876.25
2023-05-15T16:59:24.342Z,98877.53
2023-05-15T17:01:51.368Z,98878.28
2023-05-15T17:04:18.179Z,98880.09
2023-05-15T17:06:44.587Z,98889.16
2023-05-15T17:09:12.554Z,98894.91
2023-05-15T17:11:39.372Z,98892.13
2023-05-15T17:14:05.960Z,98899.28
2023-05-15T17:16:32.553Z,98900.09
2023-05-15T17:18:59.459Z,98905.38
2023-05-15T17:21:25.919Z,98901.63
2023-05-15T17:23:53.668Z,98910.41
2023-05-15T17:26:21.842Z,98917.31
2023-05-15T17:28:49.417Z,98915.00
2023-05-15T17:31:15.897Z,98917.44
2023-05-15T17:33:42.678Z,98931.03
2023-05-15T17:36:09.956Z,98930.31
2023-05-15T17:38:36.733Z,98936.50
2023-05-15T17:41:03.153Z,98938.47
2023-05-15T17:43:29.735Z,98941.84
2023-05-15T17:45:57.405Z,98955.91
2023-05-15T17:48:23.939Z,98954.72
2023-05-15T17:50:51.601Z,98961.88
2023-05-15T17:53:18.485Z,98967.09
2023-05-15T17:55:45.300Z,98960.84
2023-05-15T17:58:11.687Z,98972.50
2023-05-15T18:00:38.647Z,98979.00
2023-05-15T18:03:05.198Z,98974.63
2023-05-15T18:05:32.195Z,98979.56
2023-05-15T18:07:59.883Z,98992.31
2023-05-15T18:10:26.881Z,98995.53
2023-05-15T18:12:53.341Z,98992.00
2023-05-15T18:15:20.063Z,99004.75
2023-05-15T18:17:46.583Z,99006.31
2023-05-15T18:20:13.328Z,99009.78
2023-05-15T18:22:40.941Z,99009.44
2023-05-15T18:25:07.732Z,99007.03
2023-05-15T18:27:34.213Z,99006.06
2023-05-15T18:30:01.782Z,99007.78
2023-05-15T18:32:28.460Z,99017.28
2023-05-15T18:34:54.897Z,99016.94
2023-05-15T18:37:22.098Z,99017.59
2023-05-15T18:39:48.815Z,99022.03
2023-05-15T18:42:16.313Z,99023.44
2023-05-15T18:44:43.678Z,99031.41
2023-05-15T18:47:11.292Z,99030.53
2023-05-15T18:49:38.338Z,99033.66
2023-05-15T18:52:05.771Z,99039.22
2023-05-15T18:54:32.553Z,99029.28
2023-05-15T18:56:59.138Z,99046.84
2023-05-15T18:59:26.733Z,99042.94
2023-05-15T19:01:53.946Z,99034.50
2023-05-15T19:04:20.900Z,99038.44
2023-05-15T19:06:50.550Z,99039.44
2023-05-15T19:09:20.449Z,99046.88
2023-05-15T19:11:49.768Z,99045.53
2023-05-15T19:14:17.781Z,99055.31
2023-05-15T19:16:47.409Z,99064.78
2023-05-15T19:19:14.004Z,99064.63
2023-05-15T19:21:40.794Z,99069.38
2023-05-15T19:24:07.476Z,99065.13
2023-05-15T19:26:34.339Z,99068.53
2023-05-15T19:29:01.230Z,99066.25
2023-05-15T19:31:31.911Z,99082.19
2023-05-15T19:33:59.647Z,99082.00
2023-05-15T19:36:26.539Z,99088.03
2023-05-15T19:38:53.101Z,99090.06
2023-05-15T19:41:19.536Z,99093.31
2023-05-15T19:43:47.180Z,99091.59
2023-05-15T19:46:13.902Z,99095.81
2023-05-15T19:48:40.598Z,99098.50
2023-05-15T19:51:07.483Z,99110.34
2023-05-15T19:53:34.212Z,99119.28
2023-05-15T19:56:00.974Z,99127.88
2023-05-15T19:58:27.605Z,99128.19
2023-05-15T20:00:54.449Z,99132.75
2023-05-15T20:03:21.601Z,99140.69
2023-05-15T20:05:48.840Z,99141.22
2023-05-15T20:08:16.970Z,99150.16
2023-05-15T20:10:44.770Z,99143.44
2023-05-15T20:13:11.555Z,99142.25
2023-05-15T20:15:40.177Z,99156.06
2023-05-15T20:18:07.274Z,99154.03
2023-05-15T20:20:35.716Z,99157.59
2023-05-15T20:23:02.208Z,99156.41
2023-05-15T20:25:29.976Z,99163.78
2023-05-15T20:27:58.456Z,99165.97
2023-05-15T20:30:25.498Z,99176.28
2023-05-15T20:32:52.488Z,99184.50
2023-05-15T20:35:19.508Z,99174.41
2023-05-15T20:37:46.098Z,99176.06
2023-05-15T20:40:13.000Z,99176.91
2023-05-15T20:42:39.833Z,99170.34
2023-05-15T20:45:08.520Z,99179.78
2023-05-15T20:47:35.661Z,99162.91
2023-05-15T20:50:02.617Z,99162.94
2023-05-15T20:52:29.072Z,99179.09
2023-05-15T20:54:55.664Z,99173.00
2023-05-15T20:57:22.443Z,99166.94
2023-05-15T20:59:48.844Z,99175.34
2023-05-15T21:02:16.327Z,99182.41
2023-05-15T21:04:43.079Z,99179.38
2023-05-15T21:07:10.620Z,99188.13
2023-05-15T21:09:37.020Z,99193.28
2023-05-15T21:12:04.025Z,99191.41
2023-05-15T21:14:30.627Z,99199.25
2023-05-15T21:16:57.502Z,99201.72
2023-05-15T21:19:24.217Z,99206.84
2023-05-15T21:21:50.732Z,99215.44
2023-05-15T21:24:17.199Z,99215.38
2023-05-15T21:26:43.589Z,99213.00
2023-05-15T21:29:10.048Z,99229.44
2023-05-15T21:31:36.521Z,99222.69
2023-05-15T21:34:03.099Z,99220.53
2023-05-15T21:36:30.062Z,99233.16
2023-05-15T21:38:56.444Z,99240.19
2023-05-15T21:41:23.249Z,99237.44
2023-05-15T21:43:49.628Z,99240.84
2023-05-15T21:46:16.472Z,99236.69
2023-05-15T21:48:42.994Z,99240.09
2023-05-15T21:51:09.901Z,99239.22
2023-05-15T21:53:36.696Z,99239.22
2023-05-15T21:56:03.514Z,99243.22
2023-05-15T21:58:30.085Z,99240.97
2023-05-15T22:00:56.811Z,99237.44
2023-05-15T22:03:24.094Z,99238.97
2023-05-15T22:05:52.627Z,99237.31
2023-05-15T22:08:20.204Z,99233.59
2023-05-15T22:10:46.908Z,99240.81
2023-05-15T22:13:13.412Z,99235.94
2023-05-15T22:15:40.034Z,99232.53
2023-05-15T22:18:06.720Z,99227.38
2023-05-15T22:20:33.460Z,99226.31
2023-05-15T22:23:00.183Z,99227.25
2023-05-15T22:25:27.028Z,99231.91
2023-05-15T22:27:53.424Z,99228.41
2023-05-15T22:30:20.360Z,99230.03
2023-05-15T22:32:46.862Z,99234.31
2023-05-15T22:35:13.740Z,99234.31
2023-05-15T22:37:41.978Z,99228.78
2023-05-15T22:40:10.838Z,99244.22
2023-05-15T22:42:37.525Z,99234.63
2023-05-15T22:45:05.853Z,99243.94
2023-05-15T22:47:32.581Z,99232.41
2023-05-15T22:49:59.105Z,99242.00
2023-05-15T22:52:25.619Z,99244.00
2023-05-15T22:54:52.070Z,99245.00
2023-05-15T22:57:19.052Z,99254.59
2023-05-15T22:59:45.460Z,99245.00
2023-05-15T23:02:12.157Z,99251.22
2023-05-15T23:04:38.636Z,99252.97
2023-05-15T23:07:05.166Z,99243.09
2023-05-15T23:09:32.132Z,99248.75
2023-05-15T23:11:58.600Z,99250.59
2023-05-15T23:14:26.028Z,99245.69
2023-05-15T23:16:52.519Z,99252.13
2023-05-15T23:19:19.193Z,99251.06
2023-05-15T23:21:46.427Z,99253.66
2023-05-15T23:24:12.816Z,99248.28
2023-05-15T23:26:39.842Z,99255.75
2023-05-15T23:29:06.429Z,99247.50
2023-05-15T23:31:33.623Z,99256.28
2023-05-15T23:34:00.356Z,99258.47
2023-05-15T23:36:27.233Z,99263.72
2023-05-15T23:38:53.814Z,99257.84
2023-05-15T23:41:21.862Z,99254.38
2023-05-15T23:43:50.370Z,99250.03
2023-05-15T23:46:17.985Z,99256.09
2023-05-15T23:48:44.770Z,99255.69
2023-05-15T23:51:13.467Z,99250.91
2023-05-15T23:53:39.847Z,99252.88
2023-05-15T23:56:06.997Z,99246.66
2023-05-15T23:58:34.422Z,99254.00
